Time;durP1;ratioP1;P1;durP2;ratioP2;P2;SDS_P1;SDS_P2;PMS_P1;PMS_P2;Temp;Humidity;BMP_temperature;BMP_pressure;BME280_temperature;BME280_humidity;BME280_pressure;Samples;Min_cycle;Max_cycle;Signal;HPM_P1;HPM_P2
2022/01/02 00:00:54;;;;;;;;;;;;;;;;;;5067399;28;20329;-69
2022/01/02 00:03:26;;;;;;;;;;;;;;;;;;5086109;28;19963;-69
2022/01/02 00:05:56;;;;;;;;;;;;;;;;;;5084187;28;19932;-69
2022/01/02 00:08:27;;;;;;;;;;;;;;;;;;5084652;28;20562;-69
2022/01/02 00:10:58;;;;;;;;;;;;;;;;;;5086003;28;19924;-69
2022/01/02 00:13:30;;;;;;;;;;;;;;;;;;5085410;28;19954;-69
2022/01/02 00:16:06;;;;;;;;;;;;;;;;;;5080469;28;20307;-69
2022/01/02 00:19:04;;;;;;;;;;;;;;;;;;5094367;28;19967;-69
2022/01/02 00:21:40;;;;;;;;;;;;;;;;;;5078394;28;19953;-68
2022/01/02 00:24:10;;;;;;;;;;;;;;;;;;5085156;28;19935;-69
2022/01/02 00:26:44;;;;;;;;;;;;;;;;;;5073011;28;19939;-69
2022/01/02 00:29:13;;;;;;;;;;;;;;;;;;5085533;28;19924;-69
2022/01/02 00:31:44;;;;;;;;;;;;;;;;;;5088805;28;19923;-69
2022/01/02 00:34:14;;;;;;;;;;;;;;;;;;5087219;28;19927;-69
2022/01/02 00:36:45;;;;;;;;;;;;;;;;;;5086024;28;20022;-69
2022/01/02 00:39:17;;;;;;;;;;;;;;;;;;5083809;28;19956;-69
2022/01/02 00:41:50;;;;;;;;;;;;;;;;;;5082033;28;19928;-68
2022/01/02 00:44:18;;;;;;;;;;;;;;;;;;5080998;28;20391;-69
2022/01/02 00:46:52;;;;;;;;;;;;;;;;;;5077830;28;19928;-69
2022/01/02 00:49:24;;;;;;;;;;;;;;;;;;5082087;28;20009;-69
2022/01/02 00:51:58;;;;;;;;;;;;;;;;;;5076868;28;19931;-69
2022/01/02 00:54:49;;;;;;;;;;;;;;;;;;5082829;28;19928;-69
2022/01/02 00:57:21;;;;;;;;;;;;;;;;;;5084333;28;19957;-69
2022/01/02 00:59:53;;;;;;;;;;;;;;;;;;5087881;28;19932;-69
2022/01/02 01:02:22;;;;;;;;;;;;;;;;;;5078246;28;19935;-69
2022/01/02 01:04:52;;;;;;;;;;;;;;;;;;5088689;28;19959;-69
2022/01/02 01:07:23;;;;;;;;;;;;;;;;;;5086856;28;20442;-69
2022/01/02 01:09:53;;;;;;;;;;;;;;;;;;5084978;28;19924;-69
2022/01/02 01:12:25;;;;;;;;;;;;;;;;;;5087283;28;20397;-69
2022/01/02 01:14:55;;;;;;;;;;;;;;;;;;5078142;28;19998;-69
2022/01/02 01:17:25;;;;;;;;;;;;;;;;;;5084388;28;20034;-69
2022/01/02 01:19:56;;;;;;;;;;;;;;;;;;5083826;28;19939;-69
2022/01/02 01:22:24;;;;;;;;;;;;;;;;;;5088273;28;20703;-69
2022/01/02 01:24:53;;;;;;;;;;;;;;;;;;5086911;28;19934;-68
2022/01/02 01:27:22;;;;;;;;;;;;;;;;;;5083343;28;19923;-67
2022/01/02 01:29:52;;;;;;;;;;;;;;;;;;5082517;28;19931;-68
2022/01/02 01:32:21;;;;;;;;;;;;;;;;;;5085851;28;19977;-68
2022/01/02 01:34:50;;;;;;;;;;;;;;;;;;5088283;28;20389;-68
2022/01/02 01:37:19;;;;;;;;;;;;;;;;;;5082762;28;19938;-68
2022/01/02 01:39:50;;;;;;;;;;;;;;;;;;5084672;28;19994;-69
2022/01/02 01:42:30;;;;;;;;;;;;;;;;;;5084768;28;19935;-68
2022/01/02 01:47:47;;;;;;;;;;;;;;;;;;5085313;28;19957;-69
2022/01/02 01:50:22;;;;;;;;;;;;;;;;;;5084377;28;20047;-68
2022/01/02 01:52:52;;;;;;;;;;;;;;;;;;5088202;28;19924;-68
2022/01/02 01:55:23;;;;;;;;;;;;;;;;;;5084384;28;19932;-68
2022/01/02 01:57:51;;;;;;;;;;;;;;;;;;5088133;28;19932;-67
2022/01/02 02:00:24;;;;;;;;;;;;;;;;;;5082245;28;19928;-67
2022/01/02 02:02:51;;;;;;;;;;;;;;;;;;5085184;28;19934;-67
2022/01/02 02:05:20;;;;;;;;;;;;;;;;;;5084068;28;19935;-67
2022/01/02 02:07:53;;;;;;;;;;;;;;;;;;5083870;28;20278;-67
2022/01/02 02:10:35;;;;;;;;;;;;;;;;;;5079777;28;19932;-67
2022/01/02 02:13:08;;;;;;;;;;;;;;;;;;5084701;28;19928;-67
2022/01/02 02:15:37;;;;;;;;;;;;;;;;;;5082111;28;20257;-67
2022/01/02 02:18:05;;;;;;;;;;;;;;;;;;5085772;28;19924;-67
2022/01/02 02:20:33;;;;;;;;;;;;;;;;;;5082434;28;19928;-67
2022/01/02 02:23:04;;;;;;;;;;;;;;;;;;5084225;28;20233;-68
2022/01/02 02:25:34;;;;;;;;;;;;;;;;;;5070514;28;20230;-68
2022/01/02 02:28:02;;;;;;;;;;;;;;;;;;5074167;28;20384;-68
2022/01/02 02:30:34;;;;;;;;;;;;;;;;;;5074603;28;20019;-68
2022/01/02 02:33:05;;;;;;;;;;;;;;;;;;5081548;28;19924;-67
2022/01/02 02:35:37;;;;;;;;;;;;;;;;;;5081636;28;19931;-67
2022/01/02 02:38:07;;;;;;;;;;;;;;;;;;5076515;28;19979;-69
2022/01/02 02:40:36;;;;;;;;;;;;;;;;;;5079839;28;19928;-68
2022/01/02 02:51:28;;;;;;;;;;;;;;;;;;5076145;28;19931;-67
2022/01/02 02:54:09;;;;;;;;;;;;;;;;;;5072295;28;19964;-67
2022/01/02 02:56:54;;;;;;;;;;;;;;;;;;5080438;28;19928;-67
2022/01/02 02:59:22;;;;;;;;;;;;;;;;;;5073047;28;19925;-67
2022/01/02 03:01:49;;;;;;;;;;;;;;;;;;5077344;28;19933;-67
2022/01/02 03:04:17;;;;;;;;;;;;;;;;;;5083174;28;19932;-67
2022/01/02 03:06:47;;;;;;;;;;;;;;;;;;5059162;28;19924;-67
2022/01/02 03:09:37;;;;;;;;;;;;;;;;;;5078545;28;19960;-67
2022/01/02 03:12:08;;;;;;;;;;;;;;;;;;5071450;28;19951;-67
2022/01/02 03:14:38;;;;;;;;;;;;;;;;;;5081544;28;19928;-67
2022/01/02 03:17:09;;;;;;;;;;;;;;;;;;5084672;28;20301;-68
2022/01/02 03:19:36;;;;;;;;;;;;;;;;;;5080729;28;19924;-67
2022/01/02 03:22:10;;;;;;;;;;;;;;;;;;5084978;28;19924;-68
2022/01/02 03:24:39;;;;;;;;;;;;;;;;;;5085303;28;20489;-67
2022/01/02 03:27:08;;;;;;;;;;;;;;;;;;5068895;28;19935;-68
2022/01/02 03:29:36;;;;;;;;;;;;;;;;;;5055777;28;20507;-67
2022/01/02 03:32:05;;;;;;;;;;;;;;;;;;5061726;28;19925;-68
2022/01/02 03:34:37;;;;;;;;;;;;;;;;;;5065581;28;19925;-67
2022/01/02 03:37:04;;;;;;;;;;;;;;;;;;5069179;28;19977;-67
2022/01/02 03:39:36;;;;;;;;;;;;;;;;;;5063586;28;19924;-67
2022/01/02 03:42:07;;;;;;;;;;;;;;;;;;5070676;28;19934;-67
2022/01/02 03:44:34;;;;;;;;;;;;;;;;;;5065982;28;19928;-67
2022/01/02 03:47:03;;;;;;;;;;;;;;;;;;5053723;28;19936;-67
2022/01/02 03:49:32;;;;;;;;;;;;;;;;;;5067807;28;19985;-67
2022/01/02 03:52:02;;;;;;;;;;;;;;;;;;5064582;28;19924;-67
2022/01/02 03:54:31;;;;;;;;;;;;;;;;;;5064337;28;19935;-67
2022/01/02 03:57:00;;;;;;;;;;;;;;;;;;5066508;28;19937;-68
2022/01/02 03:59:34;;;;;;;;;;;;;;;;;;5064916;28;19924;-67
2022/01/02 04:02:03;;;;;;;;;;;;;;;;;;5071085;28;19944;-68
2022/01/02 04:04:32;;;;;;;;;;;;;;;;;;5061593;28;20362;-67
2022/01/02 04:07:01;;;;;;;;;;;;;;;;;;5071481;28;19994;-67
2022/01/02 04:09:30;;;;;;;;;;;;;;;;;;5064470;28;19982;-68
2022/01/02 04:12:01;;;;;;;;;;;;;;;;;;5064929;28;19925;-67
2022/01/02 04:14:31;;;;;;;;;;;;;;;;;;5053910;28;19924;-67
2022/01/02 04:17:01;;;;;;;;;;;;;;;;;;5066925;28;19981;-67
2022/01/02 04:19:29;;;;;;;;;;;;;;;;;;5067101;28;19937;-66
2022/01/02 04:22:02;;;;;;;;;;;;;;;;;;5070520;28;19924;-67
2022/01/02 04:24:30;;;;;;;;;;;;;;;;;;5055750;28;20303;-66
2022/01/02 04:27:00;;;;;;;;;;;;;;;;;;5058292;28;19939;-67
2022/01/02 04:29:29;;;;;;;;;;;;;;;;;;5052523;28;19931;-67
2022/01/02 04:32:00;;;;;;;;;;;;;;;;;;5067039;28;19924;-67
2022/01/02 04:34:31;;;;;;;;;;;;;;;;;;5061807;28;19924;-66
2022/01/02 04:37:13;;;;;;;;;;;;;;;;;;5067300;28;19979;-67
2022/01/02 04:39:46;;;;;;;;;;;;;;;;;;5063458;28;19925;-66
2022/01/02 04:42:16;;;;;;;;;;;;;;;;;;5064957;28;19935;-67
2022/01/02 04:44:45;;;;;;;;;;;;;;;;;;5066728;28;19978;-66
2022/01/02 04:47:16;;;;;;;;;;;;;;;;;;5068835;28;19931;-66
2022/01/02 04:49:43;;;;;;;;;;;;;;;;;;5066243;28;19936;-66
2022/01/02 04:52:14;;;;;;;;;;;;;;;;;;5062048;28;20355;-66
2022/01/02 04:54:45;;;;;;;;;;;;;;;;;;5063485;28;20473;-66
2022/01/02 04:57:13;;;;;;;;;;;;;;;;;;5063986;28;19935;-66
2022/01/02 04:59:43;;;;;;;;;;;;;;;;;;5062684;28;20396;-66
2022/01/02 05:02:12;;;;;;;;;;;;;;;;;;5064567;28;20281;-67
2022/01/02 05:04:44;;;;;;;;;;;;;;;;;;5061103;28;20366;-66
2022/01/02 05:07:13;;;;;;;;;;;;;;;;;;5063605;28;19935;-66
2022/01/02 05:09:44;;;;;;;;;;;;;;;;;;5064463;28;20511;-66
2022/01/02 05:12:13;;;;;;;;;;;;;;;;;;5058201;28;19968;-67
2022/01/02 05:14:42;;;;;;;;;;;;;;;;;;5044979;28;19939;-66
2022/01/02 05:17:11;;;;;;;;;;;;;;;;;;5059531;28;20137;-67
2022/01/02 05:19:43;;;;;;;;;;;;;;;;;;5063608;28;19924;-66
2022/01/02 05:22:15;;;;;;;;;;;;;;;;;;5058823;28;19932;-66
2022/01/02 05:24:45;;;;;;;;;;;;;;;;;;5066613;28;19924;-66
2022/01/02 05:27:16;;;;;;;;;;;;;;;;;;5065930;28;19977;-66
2022/01/02 05:29:47;;;;;;;;;;;;;;;;;;5085904;28;19973;-67
2022/01/02 05:32:18;;;;;;;;;;;;;;;;;;5085184;28;20254;-66
2022/01/02 05:34:51;;;;;;;;;;;;;;;;;;5086347;28;19949;-66
2022/01/02 05:37:20;;;;;;;;;;;;;;;;;;5085853;28;19932;-66
2022/01/02 05:39:50;;;;;;;;;;;;;;;;;;5080910;28;19932;-66
2022/01/02 05:42:25;;;;;;;;;;;;;;;;;;5080638;28;19924;-66
2022/01/02 05:44:55;;;;;;;;;;;;;;;;;;5082362;28;19931;-66
2022/01/02 05:47:25;;;;;;;;;;;;;;;;;;5070105;28;19934;-66
2022/01/02 05:49:55;;;;;;;;;;;;;;;;;;5082949;28;20011;-66
2022/01/02 05:52:29;;;;;;;;;;;;;;;;;;5070620;28;19936;-66
2022/01/02 05:55:00;;;;;;;;;;;;;;;;;;5086887;28;20472;-65
2022/01/02 05:57:30;;;;;;;;;;;;;;;;;;5083921;28;19928;-65
2022/01/02 06:00:00;;;;;;;;;;;;;;;;;;5084579;28;20472;-66
2022/01/02 06:02:31;;;;;;;;;;;;;;;;;;5080228;28;20374;-65
2022/01/02 06:05:06;;;;;;;;;;;;;;;;;;5082807;28;20519;-66
2022/01/02 06:07:36;;;;;;;;;;;;;;;;;;5083760;28;19924;-65
2022/01/02 06:10:07;;;;;;;;;;;;;;;;;;5086861;28;20499;-65
2022/01/02 06:12:40;;;;;;;;;;;;;;;;;;5082921;28;19939;-67
2022/01/02 06:15:09;;;;;;;;;;;;;;;;;;5080827;28;20077;-66
2022/01/02 06:17:39;;;;;;;;;;;;;;;;;;5085077;28;19924;-66
2022/01/02 06:20:08;;;;;;;;;;;;;;;;;;5081129;28;19928;-67
2022/01/02 06:22:40;;;;;;;;;;;;;;;;;;5083748;28;20338;-66
2022/01/02 06:25:20;;;;;;;;;;;;;;;;;;5075078;28;19929;-66
2022/01/02 06:27:51;;;;;;;;;;;;;;;;;;5073997;28;19975;-66
2022/01/02 06:30:23;;;;;;;;;;;;;;;;;;5051109;28;20028;-66
2022/01/02 06:32:55;;;;;;;;;;;;;;;;;;5065056;28;19989;-66
2022/01/02 06:35:23;;;;;;;;;;;;;;;;;;5064252;28;19932;-66
2022/01/02 06:37:58;;;;;;;;;;;;;;;;;;5055877;28;20015;-66
2022/01/02 06:40:30;;;;;;;;;;;;;;;;;;5048813;28;20345;-66
2022/01/02 06:43:02;;;;;;;;;;;;;;;;;;5061688;28;20373;-66
2022/01/02 06:45:36;;;;;;;;;;;;;;;;;;5065738;28;20347;-66
2022/01/02 06:48:10;;;;;;;;;;;;;;;;;;5063901;28;19924;-66
2022/01/02 06:50:43;;;;;;;;;;;;;;;;;;5054806;28;20416;-66
2022/01/02 06:53:13;;;;;;;;;;;;;;;;;;5054088;28;19932;-67
2022/01/02 06:55:47;;;;;;;;;;;;;;;;;;5054476;28;19924;-67
2022/01/02 06:58:19;;;;;;;;;;;;;;;;;;5062505;28;19975;-67
2022/01/02 07:00:47;;;;;;;;;;;;;;;;;;5057126;28;19925;-67
2022/01/02 07:03:18;;;;;;;;;;;;;;;;;;5056868;28;19925;-66
2022/01/02 07:05:45;;;;;;;;;;;;;;;;;;5057162;28;19924;-66
2022/01/02 07:08:20;;;;;;;;;;;;;;;;;;5066442;28;19924;-67
2022/01/02 07:10:50;;;;;;;;;;;;;;;;;;5065724;28;19982;-66
2022/01/02 07:13:20;;;;;;;;;;;;;;;;;;5066321;28;20333;-66
2022/01/02 07:15:52;;;;;;;;;;;;;;;;;;5063221;28;19993;-66
2022/01/02 07:18:25;;;;;;;;;;;;;;;;;;5061239;28;19925;-67
2022/01/02 07:20:53;;;;;;;;;;;;;;;;;;5065153;28;19932;-66
2022/01/02 07:23:22;;;;;;;;;;;;;;;;;;5062200;28;19924;-66
2022/01/02 07:25:53;;;;;;;;;;;;;;;;;;5064547;28;19928;-66
2022/01/02 07:28:24;;;;;;;;;;;;;;;;;;5073388;28;20274;-66
2022/01/02 07:30:56;;;;;;;;;;;;;;;;;;5079125;28;19928;-66
2022/01/02 07:33:32;;;;;;;;;;;;;;;;;;5065234;28;19924;-68
2022/01/02 07:36:04;;;;;;;;;;;;;;;;;;5096822;28;19925;-65
2022/01/02 07:38:34;;;;;;;;;;;;;;;;;;5076217;28;19961;-67
2022/01/02 07:41:03;;;;;;;;;;;;;;;;;;5100679;28;20019;-65
2022/01/02 07:43:38;;;;;;;;;;;;;;;;;;5087568;28;20268;-67
2022/01/02 07:46:10;;;;;;;;;;;;;;;;;;5087457;28;20365;-67
2022/01/02 07:48:42;;;;;;;;;;;;;;;;;;5082713;28;19931;-68
2022/01/02 07:51:12;;;;;;;;;;;;;;;;;;5089795;28;20313;-67
2022/01/02 07:53:39;;;;;;;;;;;;;;;;;;5080627;28;20380;-67
2022/01/02 07:56:10;;;;;;;;;;;;;;;;;;5095017;28;19959;-68
2022/01/02 07:58:44;;;;;;;;;;;;;;;;;;5093298;28;19936;-69
2022/01/02 08:01:12;;;;;;;;;;;;;;;;;;5094142;28;19957;-69
2022/01/02 08:03:46;;;;;;;;;;;;;;;;;;5086877;28;19924;-68
2022/01/02 08:06:17;;;;;;;;;;;;;;;;;;5077624;28;19939;-66
2022/01/02 08:08:47;;;;;;;;;;;;;;;;;;5087658;28;19924;-66
2022/01/02 08:11:19;;;;;;;;;;;;;;;;;;5079708;28;19924;-66
2022/01/02 08:14:08;;;;;;;;;;;;;;;;;;5073945;28;19932;-66
2022/01/02 08:16:37;;;;;;;;;;;;;;;;;;5078264;28;20039;-68
2022/01/02 08:19:08;;;;;;;;;;;;;;;;;;5083464;28;20289;-67
2022/01/02 08:21:39;;;;;;;;;;;;;;;;;;5095833;28;19924;-66
2022/01/02 08:24:09;;;;;;;;;;;;;;;;;;5086414;28;19935;-66
2022/01/02 08:26:38;;;;;;;;;;;;;;;;;;5078024;28;21119;-68
2022/01/02 08:29:11;;;;;;;;;;;;;;;;;;5084959;28;19966;-67
2022/01/02 08:31:40;;;;;;;;;;;;;;;;;;5086963;28;20408;-66
2022/01/02 08:34:10;;;;;;;;;;;;;;;;;;5086507;28;20539;-66
2022/01/02 08:36:43;;;;;;;;;;;;;;;;;;5080906;28;19928;-67
2022/01/02 08:39:14;;;;;;;;;;;;;;;;;;5078626;28;19977;-67
2022/01/02 08:41:44;;;;;;;;;;;;;;;;;;5083095;28;20239;-67
2022/01/02 08:44:16;;;;;;;;;;;;;;;;;;5084025;28;20580;-67
2022/01/02 08:46:50;;;;;;;;;;;;;;;;;;5079696;28;19924;-67
2022/01/02 08:49:22;;;;;;;;;;;;;;;;;;5081854;28;19924;-67
2022/01/02 08:51:55;;;;;;;;;;;;;;;;;;5082070;28;20045;-67
2022/01/02 08:54:24;;;;;;;;;;;;;;;;;;5078478;28;19932;-67
2022/01/02 08:56:55;;;;;;;;;;;;;;;;;;5090134;28;20052;-68
2022/01/02 08:59:27;;;;;;;;;;;;;;;;;;5086107;28;19923;-68
2022/01/02 09:02:00;;;;;;;;;;;;;;;;;;5085346;28;20938;-67
2022/01/02 09:04:30;;;;;;;;;;;;;;;;;;5080311;28;19932;-67
2022/01/02 09:06:59;;;;;;;;;;;;;;;;;;5083900;28;19924;-66
2022/01/02 09:09:30;;;;;;;;;;;;;;;;;;5082148;28;19930;-66
2022/01/02 09:12:00;;;;;;;;;;;;;;;;;;5087406;28;19932;-68
2022/01/02 09:14:35;;;;;;;;;;;;;;;;;;5080493;28;19928;-68
2022/01/02 09:17:02;;;;;;;;;;;;;;;;;;5077879;28;19930;-67
2022/01/02 09:19:32;;;;;;;;;;;;;;;;;;5083532;28;19932;-67
2022/01/02 09:22:05;;;;;;;;;;;;;;;;;;5077588;28;20539;-67
2022/01/02 09:24:35;;;;;;;;;;;;;;;;;;5063784;28;20471;-67
2022/01/02 09:27:07;;;;;;;;;;;;;;;;;;5074265;28;19935;-67
2022/01/02 09:29:42;;;;;;;;;;;;;;;;;;5084116;28;19923;-68
2022/01/02 09:32:12;;;;;;;;;;;;;;;;;;5084613;28;19932;-68
2022/01/02 09:34:45;;;;;;;;;;;;;;;;;;5080562;28;19924;-68
2022/01/02 09:37:31;;;;;;;;;;;;;;;;;;5084749;28;19971;-67
2022/01/02 09:40:01;;;;;;;;;;;;;;;;;;5084035;28;19932;-68
2022/01/02 09:42:34;;;;;;;;;;;;;;;;;;5074019;28;20672;-65
2022/01/02 09:45:02;;;;;;;;;;;;;;;;;;5081949;28;19954;-66
2022/01/02 09:47:32;;;;;;;;;;;;;;;;;;5084625;28;19985;-67
2022/01/02 09:50:10;;;;;;;;;;;;;;;;;;5084416;28;19928;-68
2022/01/02 09:52:42;;;;;;;;;;;;;;;;;;5083404;28;19994;-69
2022/01/02 09:55:12;;;;;;;;;;;;;;;;;;5085290;28;19928;-67
2022/01/02 09:57:42;;;;;;;;;;;;;;;;;;5082532;28;20258;-67
2022/01/02 10:00:15;;;;;;;;;;;;;;;;;;5083832;28;20316;-67
2022/01/02 10:02:43;;;;;;;;;;;;;;;;;;5065975;28;19932;-67
2022/01/02 10:05:14;;;;;;;;;;;;;;;;;;5066085;28;19928;-67
2022/01/02 10:07:57;;;;;;;;;;;;;;;;;;5078177;28;19924;-67
2022/01/02 10:10:30;;;;;;;;;;;;;;;;;;5080299;28;20898;-68
2022/01/02 10:13:01;;;;;;;;;;;;;;;;;;5082733;28;19939;-69
2022/01/02 10:15:31;;;;;;;;;;;;;;;;;;5086777;28;19928;-68
2022/01/02 10:18:06;;;;;;;;;;;;;;;;;;5078887;28;19929;-70
2022/01/02 10:20:34;;;;;;;;;;;;;;;;;;5088053;28;19928;-66
2022/01/02 10:23:03;;;;;;;;;;;;;;;;;;5072696;28;19936;-67
2022/01/02 10:25:31;;;;;;;;;;;;;;;;;;5082951;28;19932;-67
2022/01/02 10:28:00;;;;;;;;;;;;;;;;;;5068311;28;20370;-68
2022/01/02 10:30:29;;;;;;;;;;;;;;;;;;5057675;28;19933;-68
2022/01/02 10:32:56;;;;;;;;;;;;;;;;;;5058076;28;19932;-67
2022/01/02 10:35:25;;;;;;;;;;;;;;;;;;5062701;28;20061;-67
2022/01/02 10:37:54;;;;;;;;;;;;;;;;;;5062357;28;19928;-68
2022/01/02 10:40:21;;;;;;;;;;;;;;;;;;5061522;28;19929;-68
2022/01/02 10:42:49;;;;;;;;;;;;;;;;;;5061366;28;19932;-68
2022/01/02 10:45:18;;;;;;;;;;;;;;;;;;5065711;28;19934;-68
2022/01/02 10:47:49;;;;;;;;;;;;;;;;;;5062463;28;20582;-69
2022/01/02 10:50:35;;;;;;;;;;;;;;;;;;5046299;28;19944;-67
2022/01/02 10:53:03;;;;;;;;;;;;;;;;;;5060738;28;19962;-66
2022/01/02 10:55:34;;;;;;;;;;;;;;;;;;5067791;28;19932;-69
2022/01/02 10:58:05;;;;;;;;;;;;;;;;;;5069858;28;19928;-69
2022/01/02 11:00:39;;;;;;;;;;;;;;;;;;5065590;28;20684;-67
2022/01/02 11:03:06;;;;;;;;;;;;;;;;;;5061815;28;20584;-68
2022/01/02 11:05:37;;;;;;;;;;;;;;;;;;5065762;28;19936;-67
2022/01/02 11:08:10;;;;;;;;;;;;;;;;;;5066081;28;19928;-67
2022/01/02 11:10:39;;;;;;;;;;;;;;;;;;5065588;28;19981;-67
2022/01/02 11:13:22;;;;;;;;;;;;;;;;;;5062848;28;20051;-67
2022/01/02 11:15:53;;;;;;;;;;;;;;;;;;5068028;28;19935;-67
2022/01/02 11:18:25;;;;;;;;;;;;;;;;;;5061642;28;21154;-67
2022/01/02 11:20:55;;;;;;;;;;;;;;;;;;5061410;28;20331;-66
2022/01/02 11:23:25;;;;;;;;;;;;;;;;;;5065789;28;19931;-67
2022/01/02 11:26:00;;;;;;;;;;;;;;;;;;5066382;28;19924;-68
2022/01/02 11:28:30;;;;;;;;;;;;;;;;;;5073330;28;19936;-68
2022/01/02 11:31:02;;;;;;;;;;;;;;;;;;5086040;28;19932;-69
2022/01/02 11:33:29;;;;;;;;;;;;;;;;;;5085592;28;19931;-68
2022/01/02 11:35:58;;;;;;;;;;;;;;;;;;5087001;28;20322;-69
2022/01/02 11:38:29;;;;;;;;;;;;;;;;;;5082918;28;19928;-68
2022/01/02 11:40:56;;;;;;;;;;;;;;;;;;5087040;28;19925;-68
2022/01/02 11:43:28;;;;;;;;;;;;;;;;;;5082917;28;20632;-68
2022/01/02 11:45:58;;;;;;;;;;;;;;;;;;5086339;28;20346;-68
2022/01/02 11:48:30;;;;;;;;;;;;;;;;;;5080127;28;19939;-69
2022/01/02 11:51:01;;;;;;;;;;;;;;;;;;5086931;28;19936;-69
2022/01/02 11:53:34;;;;;;;;;;;;;;;;;;5077164;28;19940;-67
2022/01/02 11:56:06;;;;;;;;;;;;;;;;;;5086327;28;19924;-68
2022/01/02 11:58:35;;;;;;;;;;;;;;;;;;5082702;28;19924;-69
2022/01/02 12:01:05;;;;;;;;;;;;;;;;;;5082448;28;19928;-69
2022/01/02 12:03:36;;;;;;;;;;;;;;;;;;5082766;28;19936;-69
2022/01/02 12:06:07;;;;;;;;;;;;;;;;;;5078431;28;19924;-67
2022/01/02 12:08:34;;;;;;;;;;;;;;;;;;5079319;28;19932;-67
2022/01/02 12:11:02;;;;;;;;;;;;;;;;;;5083384;28;19924;-67
2022/01/02 12:13:32;;;;;;;;;;;;;;;;;;5082069;28;20365;-67
2022/01/02 12:16:02;;;;;;;;;;;;;;;;;;5086280;28;20230;-68
2022/01/02 12:18:39;;;;;;;;;;;;;;;;;;5081089;28;19924;-68
2022/01/02 12:21:18;;;;;;;;;;;;;;;;;;5084803;28;19924;-67
2022/01/02 12:23:50;;;;;;;;;;;;;;;;;;5087308;28;19931;-67
2022/01/02 12:26:22;;;;;;;;;;;;;;;;;;5084158;28;19943;-66
2022/01/02 12:28:58;;;;;;;;;;;;;;;;;;5083527;28;19924;-66
2022/01/02 12:31:30;;;;;;;;;;;;;;;;;;5088190;28;19924;-66
2022/01/02 12:34:06;;;;;;;;;;;;;;;;;;5090908;28;19932;-67
2022/01/02 12:36:34;;;;;;;;;;;;;;;;;;5086175;28;19973;-68
2022/01/02 12:39:09;;;;;;;;;;;;;;;;;;5089145;28;20345;-70
2022/01/02 12:41:38;;;;;;;;;;;;;;;;;;5089727;28;20495;-67
2022/01/02 12:44:06;;;;;;;;;;;;;;;;;;5085060;28;20057;-67
2022/01/02 12:46:50;;;;;;;;;;;;;;;;;;5086342;28;20031;-66
2022/01/02 12:49:20;;;;;;;;;;;;;;;;;;5083842;28;19935;-66
2022/01/02 12:51:55;;;;;;;;;;;;;;;;;;5074185;28;19933;-66
2022/01/02 12:54:27;;;;;;;;;;;;;;;;;;5080628;28;19981;-66
2022/01/02 12:56:55;;;;;;;;;;;;;;;;;;5079014;28;19973;-68
2022/01/02 12:59:24;;;;;;;;;;;;;;;;;;5067549;28;20353;-68
2022/01/02 13:01:52;;;;;;;;;;;;;;;;;;5081521;28;19935;-66
2022/01/02 13:04:23;;;;;;;;;;;;;;;;;;5081479;28;19981;-66
2022/01/02 13:06:51;;;;;;;;;;;;;;;;;;5080734;28;19928;-68
2022/01/02 13:09:21;;;;;;;;;;;;;;;;;;5084118;28;19974;-68
2022/01/02 13:11:52;;;;;;;;;;;;;;;;;;5081800;28;19928;-66
2022/01/02 13:14:23;;;;;;;;;;;;;;;;;;5082115;28;20357;-66
2022/01/02 13:16:51;;;;;;;;;;;;;;;;;;5079646;28;19924;-67
2022/01/02 13:19:25;;;;;;;;;;;;;;;;;;5084371;28;19928;-67
2022/01/02 13:22:00;;;;;;;;;;;;;;;;;;5079936;28;19924;-69
2022/01/02 13:24:31;;;;;;;;;;;;;;;;;;5082228;28;19928;-68
2022/01/02 13:26:59;;;;;;;;;;;;;;;;;;5080250;28;20337;-68
2022/01/02 13:29:28;;;;;;;;;;;;;;;;;;5078812;28;19923;-69
2022/01/02 13:31:56;;;;;;;;;;;;;;;;;;5081961;28;19932;-67
2022/01/02 13:34:26;;;;;;;;;;;;;;;;;;5076661;28;19971;-67
2022/01/02 13:36:56;;;;;;;;;;;;;;;;;;5074364;28;19924;-67
2022/01/02 13:39:28;;;;;;;;;;;;;;;;;;5081714;28;19936;-67
2022/01/02 13:41:57;;;;;;;;;;;;;;;;;;5079055;28;19924;-66
2022/01/02 13:44:39;;;;;;;;;;;;;;;;;;5080216;28;20008;-66
2022/01/02 13:47:12;;;;;;;;;;;;;;;;;;5079748;28;19943;-66
2022/01/02 13:49:44;;;;;;;;;;;;;;;;;;5082576;28;19924;-66
2022/01/02 13:52:13;;;;;;;;;;;;;;;;;;5079276;28;19924;-67
2022/01/02 13:54:44;;;;;;;;;;;;;;;;;;5076324;28;20309;-67
2022/01/02 13:57:18;;;;;;;;;;;;;;;;;;5080074;28;19924;-67
2022/01/02 13:59:51;;;;;;;;;;;;;;;;;;5083179;28;19940;-67
2022/01/02 14:02:22;;;;;;;;;;;;;;;;;;5080851;28;19927;-67
2022/01/02 14:04:52;;;;;;;;;;;;;;;;;;5077042;28;19932;-67
2022/01/02 14:07:20;;;;;;;;;;;;;;;;;;5087134;28;20481;-67
2022/01/02 14:09:52;;;;;;;;;;;;;;;;;;5078793;28;19924;-67
2022/01/02 14:12:23;;;;;;;;;;;;;;;;;;5080180;28;20436;-67
2022/01/02 14:15:01;;;;;;;;;;;;;;;;;;5084024;28;19923;-67
2022/01/02 14:17:35;;;;;;;;;;;;;;;;;;5082743;28;20320;-68
2022/01/02 14:20:08;;;;;;;;;;;;;;;;;;5072585;28;19928;-74
2022/01/02 14:22:39;;;;;;;;;;;;;;;;;;5077199;28;20374;-74
2022/01/02 14:25:07;;;;;;;;;;;;;;;;;;5083147;28;19950;-73
2022/01/02 14:27:35;;;;;;;;;;;;;;;;;;5084000;28;20416;-72
2022/01/02 14:30:09;;;;;;;;;;;;;;;;;;5080236;28;19983;-74
2022/01/02 14:32:38;;;;;;;;;;;;;;;;;;5084068;28;19935;-81
2022/01/02 14:35:09;;;;;;;;;;;;;;;;;;5062912;28;19929;-72
2022/01/02 14:37:36;;;;;;;;;;;;;;;;;;5081775;28;19934;-73
2022/01/02 14:40:08;;;;;;;;;;;;;;;;;;5080695;28;19924;-73
2022/01/02 14:42:41;;;;;;;;;;;;;;;;;;5071756;28;19924;-72
2022/01/02 14:45:10;;;;;;;;;;;;;;;;;;5081314;28;19942;-71
2022/01/02 14:47:40;;;;;;;;;;;;;;;;;;5083774;28;19928;-72
2022/01/02 14:50:09;;;;;;;;;;;;;;;;;;5083903;28;19924;-73
2022/01/02 14:52:43;;;;;;;;;;;;;;;;;;5076241;28;19928;-67
2022/01/02 14:55:15;;;;;;;;;;;;;;;;;;5085024;28;19971;-67
2022/01/02 14:57:43;;;;;;;;;;;;;;;;;;5082304;28;20423;-68
2022/01/02 15:00:14;;;;;;;;;;;;;;;;;;5066265;28;19935;-69
2022/01/02 15:02:45;;;;;;;;;;;;;;;;;;5081595;28;19931;-67
2022/01/02 15:05:16;;;;;;;;;;;;;;;;;;5077584;28;19992;-68
2022/01/02 15:08:00;;;;;;;;;;;;;;;;;;5078732;28;20401;-68
2022/01/02 15:10:34;;;;;;;;;;;;;;;;;;5077367;28;20525;-68
2022/01/02 15:13:08;;;;;;;;;;;;;;;;;;5067146;28;20246;-68
2022/01/02 15:15:37;;;;;;;;;;;;;;;;;;5081032;28;19931;-67
2022/01/02 15:18:07;;;;;;;;;;;;;;;;;;5082971;28;20384;-67
2022/01/02 15:20:35;;;;;;;;;;;;;;;;;;5082082;28;20631;-67
2022/01/02 15:23:08;;;;;;;;;;;;;;;;;;5075324;28;20432;-67
2022/01/02 15:25:40;;;;;;;;;;;;;;;;;;5081131;28;19924;-67
2022/01/02 15:28:08;;;;;;;;;;;;;;;;;;5084528;28;19923;-68
2022/01/02 15:30:37;;;;;;;;;;;;;;;;;;5078172;28;19928;-67
2022/01/02 15:33:09;;;;;;;;;;;;;;;;;;5087354;28;19940;-67
2022/01/02 15:35:39;;;;;;;;;;;;;;;;;;5086327;28;19981;-67
2022/01/02 15:38:11;;;;;;;;;;;;;;;;;;5086260;28;21158;-68
2022/01/02 15:40:40;;;;;;;;;;;;;;;;;;5079456;28;19928;-67
2022/01/02 15:43:09;;;;;;;;;;;;;;;;;;5086510;28;19928;-67
2022/01/02 15:45:39;;;;;;;;;;;;;;;;;;5082768;28;20375;-67
2022/01/02 15:48:12;;;;;;;;;;;;;;;;;;5085365;28;20049;-67
2022/01/02 15:50:48;;;;;;;;;;;;;;;;;;5081537;28;19936;-67
2022/01/02 15:53:21;;;;;;;;;;;;;;;;;;5085177;28;19924;-67
2022/01/02 15:55:52;;;;;;;;;;;;;;;;;;5079932;28;19924;-68
2022/01/02 15:58:23;;;;;;;;;;;;;;;;;;5068136;28;19931;-67
2022/01/02 16:00:54;;;;;;;;;;;;;;;;;;5087620;28;19928;-68
2022/01/02 16:03:27;;;;;;;;;;;;;;;;;;5082357;28;21263;-67
2022/01/02 16:06:00;;;;;;;;;;;;;;;;;;5080082;28;20313;-67
2022/01/02 16:08:29;;;;;;;;;;;;;;;;;;5072411;28;19936;-67
2022/01/02 16:11:02;;;;;;;;;;;;;;;;;;5087388;28;19927;-67
2022/01/02 16:13:31;;;;;;;;;;;;;;;;;;5083615;28;19932;-67
2022/01/02 16:16:00;;;;;;;;;;;;;;;;;;5084076;28;19932;-67
2022/01/02 16:18:32;;;;;;;;;;;;;;;;;;5077914;28;19924;-67
2022/01/02 16:21:01;;;;;;;;;;;;;;;;;;5087592;28;20465;-67
2022/01/02 16:23:31;;;;;;;;;;;;;;;;;;5084884;28;19975;-67
2022/01/02 16:26:02;;;;;;;;;;;;;;;;;;5086511;28;19927;-67
2022/01/02 16:28:41;;;;;;;;;;;;;;;;;;5079762;28;19924;-67
2022/01/02 16:31:10;;;;;;;;;;;;;;;;;;5088739;28;19924;-67
2022/01/02 16:33:41;;;;;;;;;;;;;;;;;;5086553;28;19996;-67
2022/01/02 16:36:11;;;;;;;;;;;;;;;;;;5078537;28;20321;-67
2022/01/02 16:38:46;;;;;;;;;;;;;;;;;;5082868;28;20351;-67
2022/01/02 16:41:17;;;;;;;;;;;;;;;;;;5079660;28;19932;-67
2022/01/02 16:43:49;;;;;;;;;;;;;;;;;;5086217;28;19980;-67
2022/01/02 16:46:28;;;;;;;;;;;;;;;;;;5084406;28;19932;-67
2022/01/02 16:49:00;;;;;;;;;;;;;;;;;;5084767;28;19939;-67
2022/01/02 16:51:33;;;;;;;;;;;;;;;;;;5084022;28;20554;-67
2022/01/02 16:54:06;;;;;;;;;;;;;;;;;;5079146;28;19928;-67
2022/01/02 16:56:38;;;;;;;;;;;;;;;;;;5065576;28;19984;-67
2022/01/02 16:59:10;;;;;;;;;;;;;;;;;;5089453;28;19977;-67
2022/01/02 17:01:40;;;;;;;;;;;;;;;;;;5084193;28;19924;-67
2022/01/02 17:04:08;;;;;;;;;;;;;;;;;;5080782;28;19931;-67
2022/01/02 17:06:39;;;;;;;;;;;;;;;;;;5076286;28;20377;-66
2022/01/02 17:09:07;;;;;;;;;;;;;;;;;;5086183;28;19992;-67
2022/01/02 17:11:43;;;;;;;;;;;;;;;;;;5082673;28;20040;-66
2022/01/02 17:14:25;;;;;;;;;;;;;;;;;;5083528;28;20013;-67
2022/01/02 17:16:59;;;;;;;;;;;;;;;;;;5081311;28;19958;-66
2022/01/02 17:19:35;;;;;;;;;;;;;;;;;;5080697;28;19924;-67
2022/01/02 17:22:02;;;;;;;;;;;;;;;;;;5078653;28;19928;-67
2022/01/02 17:24:30;;;;;;;;;;;;;;;;;;5082520;28;19992;-67